sensor_id;sensor_type;location;lat;lon;timestamp;pressure;altitude;pressure_sealevel;temperature;humidity
67434;BME280;54305;47.950;6.572;2023-02-08T00:01:10;95749.84;;;-3.14;95.77
67434;BME280;54305;47.950;6.572;2023-02-08T00:03:36;95751.69;;;-3.19;95.84
67434;BME280;54305;47.950;6.572;2023-02-08T00:06:02;95751.66;;;-3.17;94.40
67434;BME280;54305;47.950;6.572;2023-02-08T00:08:27;95743.91;;;-3.14;91.65
67434;BME280;54305;47.950;6.572;2023-02-08T00:10:52;95744.94;;;-3.20;91.82
67434;BME280;54305;47.950;6.572;2023-02-08T00:13:17;95745.03;;;-3.23;92.28
67434;BME280;54305;47.950;6.572;2023-02-08T00:15:44;95740.13;;;-3.29;92.66
67434;BME280;54305;47.950;6.572;2023-02-08T00:18:09;95746.06;;;-3.28;92.03
67434;BME280;54305;47.950;6.572;2023-02-08T00:20:36;95742.59;;;-3.26;92.77
67434;BME280;54305;47.950;6.572;2023-02-08T00:23:02;95741.78;;;-3.28;91.97
67434;BME280;54305;47.950;6.572;2023-02-08T00:25:27;95746.28;;;-3.36;91.64
67434;BME280;54305;47.950;6.572;2023-02-08T00:27:52;95742.63;;;-3.27;89.76
67434;BME280;54305;47.950;6.572;2023-02-08T00:30:17;95741.16;;;-3.07;88.73
67434;BME280;54305;47.950;6.572;2023-02-08T00:32:43;95740.84;;;-2.98;87.73
67434;BME280;54305;47.950;6.572;2023-02-08T00:35:08;95735.94;;;-3.04;88.26
67434;BME280;54305;47.950;6.572;2023-02-08T00:37:33;95746.13;;;-3.04;88.05
67434;BME280;54305;47.950;6.572;2023-02-08T00:39:58;95738.03;;;-3.16;89.20
67434;BME280;54305;47.950;6.572;2023-02-08T00:42:26;95739.84;;;-3.20;89.53
67434;BME280;54305;47.950;6.572;2023-02-08T00:44:51;95743.56;;;-3.30;89.75
67434;BME280;54305;47.950;6.572;2023-02-08T00:47:17;95747.13;;;-3.37;90.39
67434;BME280;54305;47.950;6.572;2023-02-08T00:49:42;95742.25;;;-3.43;91.45
67434;BME280;54305;47.950;6.572;2023-02-08T00:52:07;95747.41;;;-3.46;90.77
67434;BME280;54305;47.950;6.572;2023-02-08T00:54:32;95747.25;;;-3.40;89.74
67434;BME280;54305;47.950;6.572;2023-02-08T00:56:58;95745.63;;;-3.42;88.67
67434;BME280;54305;47.950;6.572;2023-02-08T00:59:23;95737.16;;;-3.43;87.84
67434;BME280;54305;47.950;6.572;2023-02-08T01:01:48;95730.47;;;-3.47;87.79
67434;BME280;54305;47.950;6.572;2023-02-08T01:04:13;95735.28;;;-3.38;85.61
67434;BME280;54305;47.950;6.572;2023-02-08T01:06:39;95733.44;;;-3.33;84.03
67434;BME280;54305;47.950;6.572;2023-02-08T01:09:04;95737.81;;;-3.36;84.91
67434;BME280;54305;47.950;6.572;2023-02-08T01:11:29;95735.81;;;-3.27;83.14
67434;BME280;54305;47.950;6.572;2023-02-08T01:13:55;95726.78;;;-3.37;80.53
67434;BME280;54305;47.950;6.572;2023-02-08T01:16:25;95736.00;;;-3.33;80.63
67434;BME280;54305;47.950;6.572;2023-02-08T01:18:52;95740.19;;;-3.32;80.76
67434;BME280;54305;47.950;6.572;2023-02-08T01:21:39;95748.66;;;-3.30;81.73
67434;BME280;54305;47.950;6.572;2023-02-08T01:24:03;95747.41;;;-3.46;80.86
67434;BME280;54305;47.950;6.572;2023-02-08T01:26:28;95749.19;;;-3.48;81.51
67434;BME280;54305;47.950;6.572;2023-02-08T01:28:54;95748.28;;;-3.47;80.80
67434;BME280;54305;47.950;6.572;2023-02-08T01:31:23;95747.50;;;-3.49;83.12
67434;BME280;54305;47.950;6.572;2023-02-08T01:33:48;95738.44;;;-3.57;83.94
67434;BME280;54305;47.950;6.572;2023-02-08T01:36:14;95735.47;;;-3.44;84.84
67434;BME280;54305;47.950;6.572;2023-02-08T01:38:40;95740.50;;;-3.41;82.87
67434;BME280;54305;47.950;6.572;2023-02-08T01:41:06;95735.09;;;-3.32;83.54
67434;BME280;54305;47.950;6.572;2023-02-08T01:43:34;95732.06;;;-3.15;75.08
67434;BME280;54305;47.950;6.572;2023-02-08T01:45:59;95726.97;;;-3.15;76.19
67434;BME280;54305;47.950;6.572;2023-02-08T01:48:26;95737.41;;;-3.24;76.55
67434;BME280;54305;47.950;6.572;2023-02-08T01:50:54;95734.19;;;-3.29;81.19
67434;BME280;54305;47.950;6.572;2023-02-08T01:53:21;95740.56;;;-3.44;81.09
67434;BME280;54305;47.950;6.572;2023-02-08T01:55:49;95733.81;;;-3.45;78.36
67434;BME280;54305;47.950;6.572;2023-02-08T01:58:15;95724.00;;;-3.29;74.48
67434;BME280;54305;47.950;6.572;2023-02-08T02:00:42;95728.53;;;-3.39;73.55
67434;BME280;54305;47.950;6.572;2023-02-08T02:03:08;95728.06;;;-3.51;76.48
67434;BME280;54305;47.950;6.572;2023-02-08T02:05:45;95722.13;;;-3.52;75.25
67434;BME280;54305;47.950;6.572;2023-02-08T02:08:11;95725.81;;;-3.62;73.18
67434;BME280;54305;47.950;6.572;2023-02-08T02:10:37;95718.19;;;-3.62;75.72
67434;BME280;54305;47.950;6.572;2023-02-08T02:13:05;95718.88;;;-3.57;77.78
67434;BME280;54305;47.950;6.572;2023-02-08T02:15:31;95716.84;;;-3.46;76.45
67434;BME280;54305;47.950;6.572;2023-02-08T02:17:56;95714.06;;;-3.66;75.95
67434;BME280;54305;47.950;6.572;2023-02-08T02:25:51;95706.56;;;-3.70;75.11
67434;BME280;54305;47.950;6.572;2023-02-08T02:36:11;95705.81;;;-3.74;74.09
67434;BME280;54305;47.950;6.572;2023-02-08T02:41:55;95702.03;;;-3.90;75.78
67434;BME280;54305;47.950;6.572;2023-02-08T02:44:24;95695.31;;;-3.92;73.94
67434;BME280;54305;47.950;6.572;2023-02-08T02:47:14;95689.56;;;-3.99;77.94
67434;BME280;54305;47.950;6.572;2023-02-08T02:49:54;95686.72;;;-4.19;77.41
67434;BME280;54305;47.950;6.572;2023-02-08T02:52:45;95690.66;;;-4.07;77.87
67434;BME280;54305;47.950;6.572;2023-02-08T02:55:14;95678.97;;;-3.84;76.34
67434;BME280;54305;47.950;6.572;2023-02-08T02:57:40;95675.72;;;-3.89;78.00
67434;BME280;54305;47.950;6.572;2023-02-08T03:00:08;95674.22;;;-3.96;75.72
67434;BME280;54305;47.950;6.572;2023-02-08T03:02:34;95669.31;;;-4.02;76.61
67434;BME280;54305;47.950;6.572;2023-02-08T03:05:00;95666.84;;;-4.05;77.22
67434;BME280;54305;47.950;6.572;2023-02-08T03:20:34;95688.56;;;-4.54;78.05
67434;BME280;54305;47.950;6.572;2023-02-08T03:23:08;95675.16;;;-4.29;77.66
67434;BME280;54305;47.950;6.572;2023-02-08T03:25:57;95680.00;;;-4.20;79.74
67434;BME280;54305;47.950;6.572;2023-02-08T03:28:28;95675.78;;;-4.21;75.78
67434;BME280;54305;47.950;6.572;2023-02-08T03:33:39;95668.41;;;-4.30;74.63
67434;BME280;54305;47.950;6.572;2023-02-08T03:36:24;95664.09;;;-4.28;74.44
67434;BME280;54305;47.950;6.572;2023-02-08T03:38:51;95661.72;;;-4.34;74.33
67434;BME280;54305;47.950;6.572;2023-02-08T03:41:19;95666.06;;;-4.37;74.00
67434;BME280;54305;47.950;6.572;2023-02-08T03:43:47;95666.97;;;-4.40;76.34
67434;BME280;54305;47.950;6.572;2023-02-08T03:46:17;95665.75;;;-4.25;75.71
67434;BME280;54305;47.950;6.572;2023-02-08T03:48:45;95659.06;;;-4.29;73.56
67434;BME280;54305;47.950;6.572;2023-02-08T03:51:11;95664.47;;;-4.11;72.04
67434;BME280;54305;47.950;6.572;2023-02-08T03:53:39;95659.22;;;-4.05;71.85
67434;BME280;54305;47.950;6.572;2023-02-08T03:56:07;95659.22;;;-4.05;73.05
67434;BME280;54305;47.950;6.572;2023-02-08T03:58:35;95659.22;;;-4.05;72.01
67434;BME280;54305;47.950;6.572;2023-02-08T04:01:04;95653.22;;;-4.02;71.50
67434;BME280;54305;47.950;6.572;2023-02-08T04:03:33;95653.38;;;-4.08;71.07
67434;BME280;54305;47.950;6.572;2023-02-08T04:05:59;95651.13;;;-4.19;71.42
67434;BME280;54305;47.950;6.572;2023-02-08T04:08:27;95646.97;;;-4.21;69.87
67434;BME280;54305;47.950;6.572;2023-02-08T04:10:52;95649.47;;;-4.20;69.41
67434;BME280;54305;47.950;6.572;2023-02-08T04:13:17;95647.63;;;-4.15;69.46
67434;BME280;54305;47.950;6.572;2023-02-08T04:15:42;95644.81;;;-4.04;67.63
67434;BME280;54305;47.950;6.572;2023-02-08T04:18:08;95646.16;;;-4.22;68.08
67434;BME280;54305;47.950;6.572;2023-02-08T04:20:33;95639.72;;;-4.35;68.21
67434;BME280;54305;47.950;6.572;2023-02-08T04:22:58;95637.34;;;-4.41;68.02
67434;BME280;54305;47.950;6.572;2023-02-08T04:25:24;95635.00;;;-4.47;68.50
67434;BME280;54305;47.950;6.572;2023-02-08T04:27:49;95642.22;;;-4.33;68.88
67434;BME280;54305;47.950;6.572;2023-02-08T04:30:14;95627.25;;;-4.44;69.71
67434;BME280;54305;47.950;6.572;2023-02-08T04:32:40;95628.84;;;-4.40;70.30
67434;BME280;54305;47.950;6.572;2023-02-08T04:35:05;95631.16;;;-4.31;71.03
67434;BME280;54305;47.950;6.572;2023-02-08T04:37:31;95629.97;;;-4.50;72.76
67434;BME280;54305;47.950;6.572;2023-02-08T04:39:56;95642.97;;;-4.60;73.00
67434;BME280;54305;47.950;6.572;2023-02-08T04:42:21;95630.38;;;-4.65;72.31
67434;BME280;54305;47.950;6.572;2023-02-08T04:44:47;95635.53;;;-4.68;72.59
67434;BME280;54305;47.950;6.572;2023-02-08T04:47:12;95634.22;;;-4.81;74.68
67434;BME280;54305;47.950;6.572;2023-02-08T04:49:37;95633.56;;;-4.89;75.69
67434;BME280;54305;47.950;6.572;2023-02-08T04:52:03;95637.94;;;-4.94;76.50
67434;BME280;54305;47.950;6.572;2023-02-08T04:54:28;95634.66;;;-4.99;76.74
67434;BME280;54305;47.950;6.572;2023-02-08T04:56:53;95634.97;;;-5.11;75.84
67434;BME280;54305;47.950;6.572;2023-02-08T04:59:19;95625.66;;;-5.10;76.74
67434;BME280;54305;47.950;6.572;2023-02-08T05:01:44;95625.50;;;-5.04;76.37
67434;BME280;54305;47.950;6.572;2023-02-08T05:04:09;95628.28;;;-5.15;74.72
67434;BME280;54305;47.950;6.572;2023-02-08T05:06:35;95633.28;;;-5.12;74.17
67434;BME280;54305;47.950;6.572;2023-02-08T05:09:00;95623.66;;;-5.33;75.66
67434;BME280;54305;47.950;6.572;2023-02-08T05:11:25;95622.31;;;-5.12;74.20
67434;BME280;54305;47.950;6.572;2023-02-08T05:13:51;95621.41;;;-5.10;72.89
67434;BME280;54305;47.950;6.572;2023-02-08T05:16:17;95619.66;;;-5.08;72.92
67434;BME280;54305;47.950;6.572;2023-02-08T05:18:42;95620.34;;;-5.01;72.87
67434;BME280;54305;47.950;6.572;2023-02-08T05:21:08;95622.03;;;-5.02;71.93
67434;BME280;54305;47.950;6.572;2023-02-08T05:23:33;95624.34;;;-4.93;70.21
67434;BME280;54305;47.950;6.572;2023-02-08T05:25:58;95615.66;;;-4.84;72.64
67434;BME280;54305;47.950;6.572;2023-02-08T05:28:24;95607.50;;;-4.97;73.55
67434;BME280;54305;47.950;6.572;2023-02-08T05:30:49;95612.75;;;-5.03;72.76
67434;BME280;54305;47.950;6.572;2023-02-08T05:33:14;95610.94;;;-4.98;71.13
67434;BME280;54305;47.950;6.572;2023-02-08T05:35:40;95606.25;;;-5.13;71.12
67434;BME280;54305;47.950;6.572;2023-02-08T05:38:05;95603.91;;;-5.20;71.34
67434;BME280;54305;47.950;6.572;2023-02-08T05:40:31;95611.25;;;-5.10;70.88
67434;BME280;54305;47.950;6.572;2023-02-08T05:42:56;95609.50;;;-5.08;71.34
67434;BME280;54305;47.950;6.572;2023-02-08T05:45:22;95604.81;;;-4.91;70.44
67434;BME280;54305;47.950;6.572;2023-02-08T05:47:47;95619.03;;;-4.84;68.32
67434;BME280;54305;47.950;6.572;2023-02-08T05:50:12;95608.66;;;-4.44;66.54
67434;BME280;54305;47.950;6.572;2023-02-08T05:52:38;95600.22;;;-4.46;65.82
67434;BME280;54305;47.950;6.572;2023-02-08T05:55:04;95602.16;;;-4.54;65.80
67434;BME280;54305;47.950;6.572;2023-02-08T05:57:29;95604.69;;;-4.54;65.72
67434;BME280;54305;47.950;6.572;2023-02-08T05:59:54;95602.75;;;-4.46;64.53
67434;BME280;54305;47.950;6.572;2023-02-08T06:02:20;95605.47;;;-4.22;62.76
67434;BME280;54305;47.950;6.572;2023-02-08T06:04:45;95605.31;;;-3.88;63.84
67434;BME280;54305;47.950;6.572;2023-02-08T06:07:10;95598.34;;;-3.56;60.79
67434;BME280;54305;47.950;6.572;2023-02-08T06:09:36;95601.59;;;-3.51;60.66
67434;BME280;54305;47.950;6.572;2023-02-08T06:12:01;95603.53;;;-3.31;58.29
67434;BME280;54305;47.950;6.572;2023-02-08T06:14:26;95604.06;;;-3.48;58.82
67434;BME280;54305;47.950;6.572;2023-02-08T06:16:52;95609.94;;;-3.20;57.02
67434;BME280;54305;47.950;6.572;2023-02-08T06:19:17;95621.50;;;-3.36;60.92
67434;BME280;54305;47.950;6.572;2023-02-08T06:21:42;95618.56;;;-3.50;61.85
67434;BME280;54305;47.950;6.572;2023-02-08T06:24:07;95623.66;;;-3.50;60.41
67434;BME280;54305;47.950;6.572;2023-02-08T06:26:34;95629.06;;;-3.60;60.15
67434;BME280;54305;47.950;6.572;2023-02-08T06:28:59;95622.44;;;-3.66;62.23
67434;BME280;54305;47.950;6.572;2023-02-08T06:31:25;95628.34;;;-3.93;65.71
67434;BME280;54305;47.950;6.572;2023-02-08T06:33:50;95628.31;;;-4.20;67.22
67434;BME280;54305;47.950;6.572;2023-02-08T06:36:15;95632.88;;;-4.33;65.73
67434;BME280;54305;47.950;6.572;2023-02-08T06:38:40;95627.94;;;-4.37;64.61
67434;BME280;54305;47.950;6.572;2023-02-08T06:41:06;95637.47;;;-4.45;66.27
67434;BME280;54305;47.950;6.572;2023-02-08T06:43:31;95644.38;;;-4.50;68.27
67434;BME280;54305;47.950;6.572;2023-02-08T06:45:56;95642.19;;;-4.32;67.01
67434;BME280;54305;47.950;6.572;2023-02-08T06:48:21;95655.63;;;-4.59;69.29
67434;BME280;54305;47.950;6.572;2023-02-08T06:50:47;95662.72;;;-4.70;69.02
67434;BME280;54305;47.950;6.572;2023-02-08T06:53:12;95662.94;;;-4.79;67.59
67434;BME280;54305;47.950;6.572;2023-02-08T06:55:37;95669.63;;;-4.75;66.57
67434;BME280;54305;47.950;6.572;2023-02-08T06:58:03;95669.28;;;-4.63;64.71
67434;BME280;54305;47.950;6.572;2023-02-08T07:00:28;95665.94;;;-4.63;67.50
67434;BME280;54305;47.950;6.572;2023-02-08T07:02:54;95668.09;;;-4.82;70.20
67434;BME280;54305;47.950;6.572;2023-02-08T07:05:19;95680.28;;;-4.96;69.81
67434;BME280;54305;47.950;6.572;2023-02-08T07:07:44;95667.97;;;-5.11;71.18
67434;BME280;54305;47.950;6.572;2023-02-08T07:10:09;95670.22;;;-4.99;69.39
67434;BME280;54305;47.950;6.572;2023-02-08T07:12:35;95677.81;;;-4.97;70.20
67434;BME280;54305;47.950;6.572;2023-02-08T07:15:01;95674.66;;;-5.07;70.68
67434;BME280;54305;47.950;6.572;2023-02-08T07:17:26;95678.53;;;-4.92;71.44
67434;BME280;54305;47.950;6.572;2023-02-08T07:19:51;95670.81;;;-4.56;70.82
67434;BME280;54305;47.950;6.572;2023-02-08T07:22:17;95671.44;;;-4.48;71.95
67434;BME280;54305;47.950;6.572;2023-02-08T07:24:42;95672.16;;;-4.75;72.59
67434;BME280;54305;47.950;6.572;2023-02-08T07:27:09;95671.72;;;-4.92;74.39
67434;BME280;54305;47.950;6.572;2023-02-08T07:29:34;95677.44;;;-4.82;74.43
67434;BME280;54305;47.950;6.572;2023-02-08T07:32:00;95665.59;;;-4.83;74.57
67434;BME280;54305;47.950;6.572;2023-02-08T07:34:27;95676.91;;;-4.95;73.55
67434;BME280;54305;47.950;6.572;2023-02-08T07:36:53;95682.03;;;-4.98;73.77
67434;BME280;54305;47.950;6.572;2023-02-08T07:39:18;95691.81;;;-5.16;72.84
67434;BME280;54305;47.950;6.572;2023-02-08T07:41:43;95690.69;;;-5.05;73.00
67434;BME280;54305;47.950;6.572;2023-02-08T07:44:08;95690.53;;;-4.99;71.24
67434;BME280;54305;47.950;6.572;2023-02-08T07:46:34;95691.25;;;-4.94;72.11
67434;BME280;54305;47.950;6.572;2023-02-08T07:48:59;95699.97;;;-5.04;73.80
67434;BME280;54305;47.950;6.572;2023-02-08T07:51:24;95696.94;;;-5.18;74.36
67434;BME280;54305;47.950;6.572;2023-02-08T07:53:50;95697.84;;;-5.22;73.87
67434;BME280;54305;47.950;6.572;2023-02-08T07:56:15;95702.50;;;-5.04;73.46
67434;BME280;54305;47.950;6.572;2023-02-08T07:58:41;95694.16;;;-5.09;74.24
67434;BME280;54305;47.950;6.572;2023-02-08T08:01:06;95700.19;;;-5.13;75.18
67434;BME280;54305;47.950;6.572;2023-02-08T08:03:31;95696.03;;;-5.17;76.33
67434;BME280;54305;47.950;6.572;2023-02-08T08:05:57;95701.84;;;-5.12;76.68
67434;BME280;54305;47.950;6.572;2023-02-08T08:08:22;95700.97;;;-5.11;76.94
67434;BME280;54305;47.950;6.572;2023-02-08T08:10:47;95689.09;;;-5.09;77.47
67434;BME280;54305;47.950;6.572;2023-02-08T08:13:13;95688.81;;;-4.98;78.34
67434;BME280;54305;47.950;6.572;2023-02-08T08:15:39;95685.03;;;-4.81;77.96
67434;BME280;54305;47.950;6.572;2023-02-08T08:18:04;95681.75;;;-4.54;77.27
67434;BME280;54305;47.950;6.572;2023-02-08T08:20:29;95686.66;;;-4.16;75.00
67434;BME280;54305;47.950;6.572;2023-02-08T08:22:55;95685.00;;;-3.86;74.83
67434;BME280;54305;47.950;6.572;2023-02-08T08:25:20;95675.56;;;-3.83;72.23
67434;BME280;54305;47.950;6.572;2023-02-08T08:27:45;95675.84;;;-3.64;72.95
67434;BME280;54305;47.950;6.572;2023-02-08T08:30:12;95681.06;;;-3.40;73.25
67434;BME280;54305;47.950;6.572;2023-02-08T08:32:38;95671.56;;;-3.09;71.23
67434;BME280;54305;47.950;6.572;2023-02-08T08:35:04;95677.25;;;-2.75;73.44
67434;BME280;54305;47.950;6.572;2023-02-08T08:37:29;95674.16;;;-2.34;72.03
67434;BME280;54305;47.950;6.572;2023-02-08T08:39:54;95665.78;;;-1.90;69.05
67434;BME280;54305;47.950;6.572;2023-02-08T08:42:20;95672.19;;;-1.57;69.95
67434;BME280;54305;47.950;6.572;2023-02-08T08:44:45;95671.44;;;-1.16;69.67
67434;BME280;54305;47.950;6.572;2023-02-08T08:47:10;95674.84;;;-0.94;68.15
67434;BME280;54305;47.950;6.572;2023-02-08T08:49:36;95667.97;;;-0.52;65.63
67434;BME280;54305;47.950;6.572;2023-02-08T08:52:01;95672.69;;;-0.23;65.11
67434;BME280;54305;47.950;6.572;2023-02-08T08:54:27;95664.78;;;-0.17;65.98
67434;BME280;54305;47.950;6.572;2023-02-08T08:56:52;95660.94;;;-0.07;67.86
67434;BME280;54305;47.950;6.572;2023-02-08T08:59:17;95663.63;;;0.29;65.64
67434;BME280;54305;47.950;6.572;2023-02-08T09:01:43;95663.91;;;0.42;63.94
67434;BME280;54305;47.950;6.572;2023-02-08T09:04:08;95659.81;;;0.56;65.36
67434;BME280;54305;47.950;6.572;2023-02-08T09:06:33;95651.47;;;0.88;65.15
67434;BME280;54305;47.950;6.572;2023-02-08T09:08:59;95656.22;;;1.31;61.88
67434;BME280;54305;47.950;6.572;2023-02-08T09:11:24;95651.75;;;1.52;64.24
67434;BME280;54305;47.950;6.572;2023-02-08T09:13:50;95655.63;;;1.43;67.92
67434;BME280;54305;47.950;6.572;2023-02-08T09:16:17;95657.97;;;1.82;65.25
67434;BME280;54305;47.950;6.572;2023-02-08T09:18:43;95650.22;;;1.99;62.25
67434;BME280;54305;47.950;6.572;2023-02-08T09:21:09;95651.72;;;2.03;57.84
67434;BME280;54305;47.950;6.572;2023-02-08T09:23:35;95662.31;;;1.80;58.98
67434;BME280;54305;47.950;6.572;2023-02-08T09:26:01;95661.41;;;1.81;61.69
67434;BME280;54305;47.950;6.572;2023-02-08T09:28:27;95656.75;;;2.21;64.00
67434;BME280;54305;47.950;6.572;2023-02-08T09:30:52;95658.66;;;2.66;62.60
67434;BME280;54305;47.950;6.572;2023-02-08T09:33:17;95655.47;;;3.23;58.74
67434;BME280;54305;47.950;6.572;2023-02-08T09:35:42;95647.88;;;3.65;60.34
67434;BME280;54305;47.950;6.572;2023-02-08T09:38:08;95643.91;;;4.03;59.73
67434;BME280;54305;47.950;6.572;2023-02-08T09:43:17;95647.22;;;4.47;60.38
67434;BME280;54305;47.950;6.572;2023-02-08T09:45:47;95654.28;;;4.99;59.04
67434;BME280;54305;47.950;6.572;2023-02-08T09:48:19;95648.44;;;5.36;56.68
67434;BME280;54305;47.950;6.572;2023-02-08T09:50:48;95650.00;;;5.78;54.69
67434;BME280;54305;47.950;6.572;2023-02-08T09:53:28;95654.06;;;5.94;52.88
67434;BME280;54305;47.950;6.572;2023-02-08T09:55:58;95647.50;;;6.03;51.79
67434;BME280;54305;47.950;6.572;2023-02-08T09:58:32;95650.28;;;6.25;51.26
67434;BME280;54305;47.950;6.572;2023-02-08T10:00:58;95640.97;;;6.10;49.25
67434;BME280;54305;47.950;6.572;2023-02-08T10:03:31;95648.56;;;5.74;48.78
67434;BME280;54305;47.950;6.572;2023-02-08T10:05:57;95654.53;;;4.95;48.41
67434;BME280;54305;47.950;6.572;2023-02-08T10:08:23;95665.47;;;3.43;49.68
67434;BME280;54305;47.950;6.572;2023-02-08T10:16:01;95668.28;;;1.63;59.23
67434;BME280;54305;47.950;6.572;2023-02-08T10:21:12;95674.38;;;2.12;56.83
67434;BME280;54305;47.950;6.572;2023-02-08T10:34:42;95684.22;;;2.69;57.04
67434;BME280;54305;47.950;6.572;2023-02-08T10:37:10;95671.53;;;2.33;58.96
67434;BME280;54305;47.950;6.572;2023-02-08T10:39:37;95667.78;;;2.71;59.01
67434;BME280;54305;47.950;6.572;2023-02-08T10:42:03;95677.91;;;2.90;58.92
67434;BME280;54305;47.950;6.572;2023-02-08T10:44:35;95670.69;;;2.81;59.74
67434;BME280;54305;47.950;6.572;2023-02-08T10:47:08;95672.06;;;3.02;60.08
67434;BME280;54305;47.950;6.572;2023-02-08T10:49:47;95675.31;;;3.66;59.17
67434;BME280;54305;47.950;6.572;2023-02-08T10:52:14;95670.84;;;3.54;58.38
67434;BME280;54305;47.950;6.572;2023-02-08T10:54:39;95669.19;;;3.53;57.67
67434;BME280;54305;47.950;6.572;2023-02-08T10:57:13;95655.72;;;4.63;58.17
67434;BME280;54305;47.950;6.572;2023-02-08T10:59:48;95659.75;;;3.97;57.13
67434;BME280;54305;47.950;6.572;2023-02-08T11:02:24;95653.88;;;4.37;56.86
67434;BME280;54305;47.950;6.572;2023-02-08T11:04:58;95657.94;;;4.41;55.04
67434;BME280;54305;47.950;6.572;2023-02-08T11:07:23;95646.50;;;4.31;55.67
67434;BME280;54305;47.950;6.572;2023-02-08T11:09:49;95647.75;;;4.80;56.85
67434;BME280;54305;47.950;6.572;2023-02-08T11:12:23;95651.03;;;4.41;55.78
67434;BME280;54305;47.950;6.572;2023-02-08T11:14:51;95652.22;;;3.64;58.39
67434;BME280;54305;47.950;6.572;2023-02-08T11:17:25;95654.50;;;3.69;58.53
67434;BME280;54305;47.950;6.572;2023-02-08T11:19:51;95662.03;;;3.13;59.12
67434;BME280;54305;47.950;6.572;2023-02-08T11:22:17;95653.50;;;4.15;57.77
67434;BME280;54305;47.950;6.572;2023-02-08T11:24:43;95648.59;;;3.96;57.85
67434;BME280;54305;47.950;6.572;2023-02-08T11:30:37;95652.03;;;3.67;57.83
67434;BME280;54305;47.950;6.572;2023-02-08T11:32:37;95653.13;;;4.21;56.92
67434;BME280;54305;47.950;6.572;2023-02-08T11:35:19;95649.63;;;4.50;55.54
67434;BME280;54305;47.950;6.572;2023-02-08T11:37:55;95644.69;;;4.87;55.05
67434;BME280;54305;47.950;6.572;2023-02-08T11:40:23;95640.94;;;4.79;54.89
67434;BME280;54305;47.950;6.572;2023-02-08T11:42:48;95642.34;;;5.64;53.28
67434;BME280;54305;47.950;6.572;2023-02-08T11:45:20;95634.25;;;5.56;53.14
67434;BME280;54305;47.950;6.572;2023-02-08T11:47:46;95628.44;;;5.52;53.92
67434;BME280;54305;47.950;6.572;2023-02-08T11:50:20;95627.81;;;5.49;53.07
67434;BME280;54305;47.950;6.572;2023-02-08T11:52:49;95623.63;;;5.34;52.43
67434;BME280;54305;47.950;6.572;2023-02-08T11:57:50;95616.13;;;5.17;53.12
67434;BME280;54305;47.950;6.572;2023-02-08T12:00:22;95620.91;;;5.62;53.05
67434;BME280;54305;47.950;6.572;2023-02-08T12:02:49;95618.00;;;5.15;52.63
67434;BME280;54305;47.950;6.572;2023-02-08T12:05:17;95615.47;;;5.01;54.49
67434;BME280;54305;47.950;6.572;2023-02-08T12:20:41;95620.16;;;5.08;51.84
67434;BME280;54305;47.950;6.572;2023-02-08T12:23:28;95611.81;;;6.08;50.03
67434;BME280;54305;47.950;6.572;2023-02-08T12:26:10;95622.72;;;4.68;51.55
67434;BME280;54305;47.950;6.572;2023-02-08T12:31:10;95605.78;;;6.32;48.97
67434;BME280;54305;47.950;6.572;2023-02-08T12:54:36;95596.63;;;7.71;44.57
67434;BME280;54305;47.950;6.572;2023-02-08T12:57:03;95597.69;;;7.45;44.21
67434;BME280;54305;47.950;6.572;2023-02-08T12:59:45;95595.38;;;7.06;46.06
67434;BME280;54305;47.950;6.572;2023-02-08T13:02:13;95593.09;;;7.83;43.82
67434;BME280;54305;47.950;6.572;2023-02-08T13:04:42;95593.59;;;9.51;40.18
67434;BME280;54305;47.950;6.572;2023-02-08T13:09:43;95589.44;;;8.64;42.39
67434;BME280;54305;47.950;6.572;2023-02-08T13:12:17;95590.09;;;8.11;42.58
67434;BME280;54305;47.950;6.572;2023-02-08T13:17:20;95584.25;;;8.31;42.06
67434;BME280;54305;47.950;6.572;2023-02-08T13:22:20;95579.00;;;8.86;39.95
67434;BME280;54305;47.950;6.572;2023-02-08T13:24:46;95583.75;;;8.70;40.50
67434;BME280;54305;47.950;6.572;2023-02-08T13:27:14;95577.50;;;8.17;41.51
67434;BME280;54305;47.950;6.572;2023-02-08T13:29:40;95575.25;;;8.24;43.31
67434;BME280;54305;47.950;6.572;2023-02-08T13:32:06;95575.22;;;8.13;41.99
67434;BME280;54305;47.950;6.572;2023-02-08T13:34:43;95578.75;;;8.01;43.02
67434;BME280;54305;47.950;6.572;2023-02-08T13:37:23;95581.38;;;8.12;42.88
67434;BME280;54305;47.950;6.572;2023-02-08T13:39:50;95589.75;;;7.35;43.79
67434;BME280;54305;47.950;6.572;2023-02-08T13:44:53;95582.97;;;9.23;41.21
67434;BME280;54305;47.950;6.572;2023-02-08T13:47:21;95575.22;;;10.16;38.37
67434;BME280;54305;47.950;6.572;2023-02-08T13:52:58;95574.28;;;8.91;41.19
67434;BME280;54305;47.950;6.572;2023-02-08T13:57:51;95567.03;;;9.48;39.89
67434;BME280;54305;47.950;6.572;2023-02-08T14:00:21;95574.00;;;7.95;43.40
67434;BME280;54305;47.950;6.572;2023-02-08T14:02:57;95572.00;;;7.87;41.90
67434;BME280;54305;47.950;6.572;2023-02-08T14:05:56;95564.63;;;8.71;42.17
67434;BME280;54305;47.950;6.572;2023-02-08T14:08:19;95575.44;;;7.88;42.48
67434;BME280;54305;47.950;6.572;2023-02-08T14:10:51;95569.56;;;9.27;40.35
67434;BME280;54305;47.950;6.572;2023-02-08T14:13:27;95574.41;;;9.00;41.71
67434;BME280;54305;47.950;6.572;2023-02-08T14:18:37;95561.38;;;11.53;36.58
67434;BME280;54305;47.950;6.572;2023-02-08T14:21:03;95567.25;;;10.77;36.55
67434;BME280;54305;47.950;6.572;2023-02-08T14:23:30;95564.72;;;10.57;37.88
67434;BME280;54305;47.950;6.572;2023-02-08T14:25:57;95573.72;;;10.02;37.69
67434;BME280;54305;47.950;6.572;2023-02-08T14:28:31;95577.06;;;10.04;37.88
67434;BME280;54305;47.950;6.572;2023-02-08T14:30:59;95570.75;;;8.15;41.06
67434;BME280;54305;47.950;6.572;2023-02-08T14:33:34;95569.34;;;9.30;40.57
67434;BME280;54305;47.950;6.572;2023-02-08T14:36:02;95565.06;;;9.40;39.08
67434;BME280;54305;47.950;6.572;2023-02-08T14:41:17;95556.41;;;10.33;38.21
67434;BME280;54305;47.950;6.572;2023-02-08T14:43:57;95557.06;;;10.65;37.85
67434;BME280;54305;47.950;6.572;2023-02-08T14:49:38;95551.22;;;11.40;35.83
67434;BME280;54305;47.950;6.572;2023-02-08T14:52:02;95551.97;;;11.03;35.40
67434;BME280;54305;47.950;6.572;2023-02-08T14:54:38;95545.22;;;10.42;38.32
67434;BME280;54305;47.950;6.572;2023-02-08T14:57:19;95548.66;;;10.22;37.31
67434;BME280;54305;47.950;6.572;2023-02-08T14:59:47;95543.97;;;10.16;37.16
67434;BME280;54305;47.950;6.572;2023-02-08T15:02:20;95550.72;;;8.28;40.73
67434;BME280;54305;47.950;6.572;2023-02-08T15:04:45;95547.25;;;7.38;42.36